sensor_id;sensor_type;location;lat;lon;timestamp;P1;durP1;ratioP1;P2;durP2;ratioP2
23262;SDS011;11800;49.830;9.922;2022-07-03T00:00:30;0.10;;;0.10;;
23262;SDS011;11800;49.830;9.922;2022-07-03T00:02:56;0.10;;;0.10;;
23262;SDS011;11800;49.830;9.922;2022-07-03T00:05:22;0.08;;;0.08;;
23262;SDS011;11800;49.830;9.922;2022-07-03T00:07:48;0.08;;;0.08;;
23262;SDS011;11800;49.830;9.922;2022-07-03T00:10:15;0.10;;;0.10;;
23262;SDS011;11800;49.830;9.922;2022-07-03T00:12:41;0.00;;;0.00;;
23262;SDS011;11800;49.830;9.922;2022-07-03T00:15:07;0.10;;;0.10;;
23262;SDS011;11800;49.830;9.922;2022-07-03T00:17:33;0.03;;;0.03;;
23262;SDS011;11800;49.830;9.922;2022-07-03T00:19:59;0.00;;;0.00;;
23262;SDS011;11800;49.830;9.922;2022-07-03T00:22:25;0.10;;;0.10;;
23262;SDS011;11800;49.830;9.922;2022-07-03T00:24:53;0.00;;;0.00;;
23262;SDS011;11800;49.830;9.922;2022-07-03T00:27:20;0.00;;;0.00;;
23262;SDS011;11800;49.830;9.922;2022-07-03T00:29:46;0.10;;;0.10;;
23262;SDS011;11800;49.830;9.922;2022-07-03T00:32:19;0.10;;;0.10;;
23262;SDS011;11800;49.830;9.922;2022-07-03T00:34:47;0.00;;;0.00;;
23262;SDS011;11800;49.830;9.922;2022-07-03T00:37:15;0.10;;;0.10;;
23262;SDS011;11800;49.830;9.922;2022-07-03T00:39:42;0.00;;;0.00;;
23262;SDS011;11800;49.830;9.922;2022-07-03T00:42:08;0.10;;;0.10;;
23262;SDS011;11800;49.830;9.922;2022-07-03T00:44:42;0.00;;;0.00;;
23262;SDS011;11800;49.830;9.922;2022-07-03T00:47:08;0.10;;;0.10;;
23262;SDS011;11800;49.830;9.922;2022-07-03T00:49:34;0.00;;;0.00;;
23262;SDS011;11800;49.830;9.922;2022-07-03T00:52:04;0.03;;;0.03;;
23262;SDS011;11800;49.830;9.922;2022-07-03T00:54:32;0.10;;;0.10;;
23262;SDS011;11800;49.830;9.922;2022-07-03T00:56:58;0.10;;;0.10;;
23262;SDS011;11800;49.830;9.922;2022-07-03T00:59:26;0.05;;;0.05;;
23262;SDS011;11800;49.830;9.922;2022-07-03T01:01:53;0.00;;;0.00;;
23262;SDS011;11800;49.830;9.922;2022-07-03T01:09:26;0.10;;;0.10;;
23262;SDS011;11800;49.830;9.922;2022-07-03T01:11:58;0.10;;;0.10;;
23262;SDS011;11800;49.830;9.922;2022-07-03T01:14:53;0.10;;;0.10;;
23262;SDS011;11800;49.830;9.922;2022-07-03T01:17:20;0.08;;;0.08;;
23262;SDS011;11800;49.830;9.922;2022-07-03T01:19:47;0.08;;;0.08;;
23262;SDS011;11800;49.830;9.922;2022-07-03T01:27:28;0.00;;;0.00;;
23262;SDS011;11800;49.830;9.922;2022-07-03T01:30:02;0.00;;;0.00;;
23262;SDS011;11800;49.830;9.922;2022-07-03T01:32:31;0.10;;;0.10;;
23262;SDS011;11800;49.830;9.922;2022-07-03T01:34:58;0.10;;;0.10;;
23262;SDS011;11800;49.830;9.922;2022-07-03T01:37:26;0.00;;;0.00;;
23262;SDS011;11800;49.830;9.922;2022-07-03T01:39:53;0.10;;;0.10;;
23262;SDS011;11800;49.830;9.922;2022-07-03T01:42:19;0.00;;;0.00;;
23262;SDS011;11800;49.830;9.922;2022-07-03T01:44:48;0.10;;;0.10;;
23262;SDS011;11800;49.830;9.922;2022-07-03T01:47:16;0.00;;;0.00;;
23262;SDS011;11800;49.830;9.922;2022-07-03T01:49:43;0.10;;;0.10;;
23262;SDS011;11800;49.830;9.922;2022-07-03T01:52:12;0.00;;;0.00;;
23262;SDS011;11800;49.830;9.922;2022-07-03T01:54:40;0.00;;;0.00;;
23262;SDS011;11800;49.830;9.922;2022-07-03T01:57:08;0.00;;;0.00;;
23262;SDS011;11800;49.830;9.922;2022-07-03T01:59:34;0.05;;;0.05;;
23262;SDS011;11800;49.830;9.922;2022-07-03T02:02:02;0.00;;;0.00;;
23262;SDS011;11800;49.830;9.922;2022-07-03T02:04:34;0.00;;;0.00;;
23262;SDS011;11800;49.830;9.922;2022-07-03T02:07:05;0.08;;;0.08;;
23262;SDS011;11800;49.830;9.922;2022-07-03T02:10:19;0.10;;;0.10;;
23262;SDS011;11800;49.830;9.922;2022-07-03T02:12:20;0.08;;;0.08;;
23262;SDS011;11800;49.830;9.922;2022-07-03T02:14:53;0.10;;;0.10;;
23262;SDS011;11800;49.830;9.922;2022-07-03T02:17:24;0.10;;;0.10;;
23262;SDS011;11800;49.830;9.922;2022-07-03T02:22:20;0.10;;;0.10;;
23262;SDS011;11800;49.830;9.922;2022-07-03T02:24:46;0.10;;;0.10;;
23262;SDS011;11800;49.830;9.922;2022-07-03T02:27:16;0.05;;;0.05;;
23262;SDS011;11800;49.830;9.922;2022-07-03T02:29:46;0.10;;;0.10;;
23262;SDS011;11800;49.830;9.922;2022-07-03T02:32:13;0.10;;;0.10;;
23262;SDS011;11800;49.830;9.922;2022-07-03T02:34:42;0.10;;;0.10;;
23262;SDS011;11800;49.830;9.922;2022-07-03T02:37:15;0.10;;;0.10;;
23262;SDS011;11800;49.830;9.922;2022-07-03T02:39:43;0.10;;;0.10;;
23262;SDS011;11800;49.830;9.922;2022-07-03T02:42:26;0.10;;;0.10;;
23262;SDS011;11800;49.830;9.922;2022-07-03T02:44:54;0.10;;;0.10;;
23262;SDS011;11800;49.830;9.922;2022-07-03T02:47:27;0.10;;;0.10;;
23262;SDS011;11800;49.830;9.922;2022-07-03T02:50:06;0.00;;;0.00;;
23262;SDS011;11800;49.830;9.922;2022-07-03T02:52:42;0.10;;;0.10;;
23262;SDS011;11800;49.830;9.922;2022-07-03T03:00:35;0.10;;;0.10;;
23262;SDS011;11800;49.830;9.922;2022-07-03T03:03:03;0.00;;;0.00;;
23262;SDS011;11800;49.830;9.922;2022-07-03T03:05:44;0.10;;;0.10;;
23262;SDS011;11800;49.830;9.922;2022-07-03T03:10:45;0.10;;;0.10;;
23262;SDS011;11800;49.830;9.922;2022-07-03T03:13:13;0.10;;;0.10;;
23262;SDS011;11800;49.830;9.922;2022-07-03T03:15:47;0.10;;;0.10;;
23262;SDS011;11800;49.830;9.922;2022-07-03T03:18:20;0.00;;;0.00;;
23262;SDS011;11800;49.830;9.922;2022-07-03T03:20:47;0.10;;;0.10;;
23262;SDS011;11800;49.830;9.922;2022-07-03T03:25:43;0.10;;;0.10;;
23262;SDS011;11800;49.830;9.922;2022-07-03T03:28:09;0.10;;;0.10;;
23262;SDS011;11800;49.830;9.922;2022-07-03T03:30:36;0.10;;;0.10;;
23262;SDS011;11800;49.830;9.922;2022-07-03T03:33:03;0.10;;;0.10;;
23262;SDS011;11800;49.830;9.922;2022-07-03T03:35:33;0.10;;;0.10;;
23262;SDS011;11800;49.830;9.922;2022-07-03T03:37:59;0.10;;;0.10;;
23262;SDS011;11800;49.830;9.922;2022-07-03T03:40:25;0.08;;;0.08;;
23262;SDS011;11800;49.830;9.922;2022-07-03T03:42:51;0.10;;;0.10;;
23262;SDS011;11800;49.830;9.922;2022-07-03T03:45:17;0.10;;;0.10;;
23262;SDS011;11800;49.830;9.922;2022-07-03T03:47:43;0.10;;;0.10;;
23262;SDS011;11800;49.830;9.922;2022-07-03T03:50:10;0.10;;;0.10;;
23262;SDS011;11800;49.830;9.922;2022-07-03T03:52:36;0.10;;;0.10;;
23262;SDS011;11800;49.830;9.922;2022-07-03T03:55:02;0.00;;;0.00;;
23262;SDS011;11800;49.830;9.922;2022-07-03T03:57:28;0.10;;;0.10;;
23262;SDS011;11800;49.830;9.922;2022-07-03T03:59:54;0.10;;;0.10;;
23262;SDS011;11800;49.830;9.922;2022-07-03T04:02:21;0.00;;;0.00;;
23262;SDS011;11800;49.830;9.922;2022-07-03T04:04:47;0.10;;;0.10;;
23262;SDS011;11800;49.830;9.922;2022-07-03T04:07:13;0.10;;;0.10;;
23262;SDS011;11800;49.830;9.922;2022-07-03T04:09:39;0.00;;;0.00;;
23262;SDS011;11800;49.830;9.922;2022-07-03T04:12:06;0.10;;;0.10;;
23262;SDS011;11800;49.830;9.922;2022-07-03T04:14:33;0.10;;;0.10;;
23262;SDS011;11800;49.830;9.922;2022-07-03T04:16:59;0.10;;;0.10;;
23262;SDS011;11800;49.830;9.922;2022-07-03T04:19:25;0.00;;;0.00;;
23262;SDS011;11800;49.830;9.922;2022-07-03T04:21:51;0.10;;;0.10;;
23262;SDS011;11800;49.830;9.922;2022-07-03T04:24:17;0.10;;;0.10;;
23262;SDS011;11800;49.830;9.922;2022-07-03T04:26:43;0.10;;;0.10;;
23262;SDS011;11800;49.830;9.922;2022-07-03T04:29:09;0.10;;;0.10;;
23262;SDS011;11800;49.830;9.922;2022-07-03T04:31:35;0.10;;;0.10;;
23262;SDS011;11800;49.830;9.922;2022-07-03T04:34:02;0.10;;;0.10;;
23262;SDS011;11800;49.830;9.922;2022-07-03T04:36:28;0.00;;;0.00;;
23262;SDS011;11800;49.830;9.922;2022-07-03T04:38:54;0.00;;;0.00;;
23262;SDS011;11800;49.830;9.922;2022-07-03T04:41:20;0.10;;;0.10;;
23262;SDS011;11800;49.830;9.922;2022-07-03T04:43:46;0.10;;;0.10;;
23262;SDS011;11800;49.830;9.922;2022-07-03T04:46:12;0.10;;;0.10;;
23262;SDS011;11800;49.830;9.922;2022-07-03T04:48:38;0.10;;;0.10;;
23262;SDS011;11800;49.830;9.922;2022-07-03T04:51:04;0.10;;;0.10;;
23262;SDS011;11800;49.830;9.922;2022-07-03T04:53:31;0.10;;;0.10;;
23262;SDS011;11800;49.830;9.922;2022-07-03T04:55:57;0.10;;;0.10;;
23262;SDS011;11800;49.830;9.922;2022-07-03T04:58:23;0.10;;;0.10;;
23262;SDS011;11800;49.830;9.922;2022-07-03T05:00:49;0.08;;;0.08;;
23262;SDS011;11800;49.830;9.922;2022-07-03T05:03:15;0.00;;;0.00;;
23262;SDS011;11800;49.830;9.922;2022-07-03T05:05:41;0.10;;;0.10;;
23262;SDS011;11800;49.830;9.922;2022-07-03T05:08:07;0.10;;;0.10;;
23262;SDS011;11800;49.830;9.922;2022-07-03T05:10:33;0.00;;;0.00;;
23262;SDS011;11800;49.830;9.922;2022-07-03T05:12:59;0.10;;;0.10;;
23262;SDS011;11800;49.830;9.922;2022-07-03T05:15:25;0.10;;;0.10;;
23262;SDS011;11800;49.830;9.922;2022-07-03T05:17:51;0.10;;;0.10;;
23262;SDS011;11800;49.830;9.922;2022-07-03T05:20:17;0.05;;;0.05;;
23262;SDS011;11800;49.830;9.922;2022-07-03T05:22:52;0.10;;;0.10;;
23262;SDS011;11800;49.830;9.922;2022-07-03T05:25:19;0.10;;;0.10;;
23262;SDS011;11800;49.830;9.922;2022-07-03T05:27:45;0.10;;;0.10;;
23262;SDS011;11800;49.830;9.922;2022-07-03T05:30:11;0.10;;;0.10;;
23262;SDS011;11800;49.830;9.922;2022-07-03T05:32:37;0.03;;;0.03;;
23262;SDS011;11800;49.830;9.922;2022-07-03T05:35:04;0.10;;;0.10;;
23262;SDS011;11800;49.830;9.922;2022-07-03T05:37:30;0.00;;;0.00;;
23262;SDS011;11800;49.830;9.922;2022-07-03T05:39:56;0.05;;;0.05;;
23262;SDS011;11800;49.830;9.922;2022-07-03T05:42:22;0.00;;;0.00;;
23262;SDS011;11800;49.830;9.922;2022-07-03T05:44:48;0.10;;;0.10;;
23262;SDS011;11800;49.830;9.922;2022-07-03T05:47:14;0.10;;;0.10;;
23262;SDS011;11800;49.830;9.922;2022-07-03T05:49:40;0.10;;;0.10;;
23262;SDS011;11800;49.830;9.922;2022-07-03T05:52:06;0.10;;;0.10;;
23262;SDS011;11800;49.830;9.922;2022-07-03T05:54:32;0.10;;;0.10;;
23262;SDS011;11800;49.830;9.922;2022-07-03T05:56:58;0.00;;;0.00;;
23262;SDS011;11800;49.830;9.922;2022-07-03T05:59:24;0.08;;;0.08;;
23262;SDS011;11800;49.830;9.922;2022-07-03T06:01:50;0.00;;;0.00;;
23262;SDS011;11800;49.830;9.922;2022-07-03T06:04:16;0.00;;;0.00;;
23262;SDS011;11800;49.830;9.922;2022-07-03T06:06:42;0.08;;;0.08;;
23262;SDS011;11800;49.830;9.922;2022-07-03T06:09:08;0.10;;;0.10;;
23262;SDS011;11800;49.830;9.922;2022-07-03T06:11:34;0.10;;;0.10;;
23262;SDS011;11800;49.830;9.922;2022-07-03T06:14:00;0.10;;;0.10;;
23262;SDS011;11800;49.830;9.922;2022-07-03T06:16:26;0.10;;;0.10;;
23262;SDS011;11800;49.830;9.922;2022-07-03T06:18:52;0.10;;;0.10;;
23262;SDS011;11800;49.830;9.922;2022-07-03T06:21:19;0.10;;;0.10;;
23262;SDS011;11800;49.830;9.922;2022-07-03T06:23:45;0.10;;;0.10;;
23262;SDS011;11800;49.830;9.922;2022-07-03T06:26:11;0.00;;;0.00;;
23262;SDS011;11800;49.830;9.922;2022-07-03T06:28:37;0.10;;;0.10;;
23262;SDS011;11800;49.830;9.922;2022-07-03T06:31:03;0.10;;;0.10;;
23262;SDS011;11800;49.830;9.922;2022-07-03T06:33:29;0.10;;;0.10;;
23262;SDS011;11800;49.830;9.922;2022-07-03T06:35:55;0.10;;;0.10;;
23262;SDS011;11800;49.830;9.922;2022-07-03T06:38:21;0.10;;;0.10;;
23262;SDS011;11800;49.830;9.922;2022-07-03T06:40:47;0.10;;;0.10;;
23262;SDS011;11800;49.830;9.922;2022-07-03T06:43:13;0.10;;;0.10;;
23262;SDS011;11800;49.830;9.922;2022-07-03T06:45:39;0.00;;;0.00;;
23262;SDS011;11800;49.830;9.922;2022-07-03T06:48:05;0.10;;;0.10;;
23262;SDS011;11800;49.830;9.922;2022-07-03T06:50:31;0.10;;;0.10;;
23262;SDS011;11800;49.830;9.922;2022-07-03T06:52:57;0.10;;;0.10;;
23262;SDS011;11800;49.830;9.922;2022-07-03T06:55:23;0.10;;;0.10;;
23262;SDS011;11800;49.830;9.922;2022-07-03T06:57:49;0.10;;;0.10;;
23262;SDS011;11800;49.830;9.922;2022-07-03T07:00:15;0.08;;;0.08;;
23262;SDS011;11800;49.830;9.922;2022-07-03T07:02:41;0.10;;;0.10;;
23262;SDS011;11800;49.830;9.922;2022-07-03T07:05:07;0.10;;;0.10;;
23262;SDS011;11800;49.830;9.922;2022-07-03T07:07:33;0.10;;;0.10;;
23262;SDS011;11800;49.830;9.922;2022-07-03T07:09:59;0.10;;;0.10;;
23262;SDS011;11800;49.830;9.922;2022-07-03T07:12:25;0.10;;;0.10;;
23262;SDS011;11800;49.830;9.922;2022-07-03T07:14:51;0.10;;;0.10;;
23262;SDS011;11800;49.830;9.922;2022-07-03T07:17:18;0.10;;;0.10;;
23262;SDS011;11800;49.830;9.922;2022-07-03T07:19:44;0.10;;;0.10;;
23262;SDS011;11800;49.830;9.922;2022-07-03T07:22:10;0.10;;;0.10;;
23262;SDS011;11800;49.830;9.922;2022-07-03T07:24:36;0.10;;;0.10;;
23262;SDS011;11800;49.830;9.922;2022-07-03T07:27:02;0.10;;;0.10;;
23262;SDS011;11800;49.830;9.922;2022-07-03T07:29:28;0.00;;;0.00;;
23262;SDS011;11800;49.830;9.922;2022-07-03T07:31:54;0.10;;;0.10;;
23262;SDS011;11800;49.830;9.922;2022-07-03T07:34:20;0.03;;;0.03;;
23262;SDS011;11800;49.830;9.922;2022-07-03T07:36:46;0.10;;;0.10;;
23262;SDS011;11800;49.830;9.922;2022-07-03T07:39:12;0.00;;;0.00;;
23262;SDS011;11800;49.830;9.922;2022-07-03T07:41:38;0.10;;;0.10;;
23262;SDS011;11800;49.830;9.922;2022-07-03T07:44:04;0.10;;;0.10;;
23262;SDS011;11800;49.830;9.922;2022-07-03T07:46:31;0.00;;;0.00;;
23262;SDS011;11800;49.830;9.922;2022-07-03T07:48:57;0.10;;;0.10;;
23262;SDS011;11800;49.830;9.922;2022-07-03T07:51:23;0.10;;;0.10;;
23262;SDS011;11800;49.830;9.922;2022-07-03T07:53:49;0.10;;;0.10;;
23262;SDS011;11800;49.830;9.922;2022-07-03T07:56:17;0.08;;;0.08;;
23262;SDS011;11800;49.830;9.922;2022-07-03T07:58:43;0.08;;;0.08;;
23262;SDS011;11800;49.830;9.922;2022-07-03T08:01:09;0.03;;;0.03;;
23262;SDS011;11800;49.830;9.922;2022-07-03T08:03:54;0.10;;;0.10;;
23262;SDS011;11800;49.830;9.922;2022-07-03T08:06:38;0.10;;;0.10;;
23262;SDS011;11800;49.830;9.922;2022-07-03T08:09:04;0.00;;;0.00;;
23262;SDS011;11800;49.830;9.922;2022-07-03T08:11:30;0.05;;;0.05;;
23262;SDS011;11800;49.830;9.922;2022-07-03T08:13:56;0.10;;;0.10;;
23262;SDS011;11800;49.830;9.922;2022-07-03T08:16:22;0.10;;;0.10;;
23262;SDS011;11800;49.830;9.922;2022-07-03T08:18:48;0.10;;;0.10;;
23262;SDS011;11800;49.830;9.922;2022-07-03T08:21:14;0.10;;;0.10;;
23262;SDS011;11800;49.830;9.922;2022-07-03T08:23:41;0.10;;;0.10;;
23262;SDS011;11800;49.830;9.922;2022-07-03T08:26:07;0.10;;;0.10;;
23262;SDS011;11800;49.830;9.922;2022-07-03T08:28:33;0.00;;;0.00;;
23262;SDS011;11800;49.830;9.922;2022-07-03T08:30:59;0.05;;;0.05;;
23262;SDS011;11800;49.830;9.922;2022-07-03T08:33:25;0.10;;;0.10;;
23262;SDS011;11800;49.830;9.922;2022-07-03T08:35:51;0.10;;;0.10;;
23262;SDS011;11800;49.830;9.922;2022-07-03T08:38:17;0.10;;;0.10;;
23262;SDS011;11800;49.830;9.922;2022-07-03T08:40:43;0.10;;;0.10;;
23262;SDS011;11800;49.830;9.922;2022-07-03T08:43:10;0.10;;;0.10;;
23262;SDS011;11800;49.830;9.922;2022-07-03T08:45:37;0.10;;;0.10;;
23262;SDS011;11800;49.830;9.922;2022-07-03T08:48:03;0.10;;;0.10;;
23262;SDS011;11800;49.830;9.922;2022-07-03T08:50:30;0.10;;;0.10;;
23262;SDS011;11800;49.830;9.922;2022-07-03T08:52:58;0.10;;;0.10;;
23262;SDS011;11800;49.830;9.922;2022-07-03T08:55:25;0.10;;;0.10;;
23262;SDS011;11800;49.830;9.922;2022-07-03T08:57:51;0.10;;;0.10;;
23262;SDS011;11800;49.830;9.922;2022-07-03T09:00:21;0.10;;;0.10;;
23262;SDS011;11800;49.830;9.922;2022-07-03T09:02:47;0.10;;;0.10;;
23262;SDS011;11800;49.830;9.922;2022-07-03T09:05:14;0.10;;;0.10;;
23262;SDS011;11800;49.830;9.922;2022-07-03T09:07:41;0.10;;;0.10;;
23262;SDS011;11800;49.830;9.922;2022-07-03T09:10:08;0.10;;;0.10;;
23262;SDS011;11800;49.830;9.922;2022-07-03T09:12:35;0.00;;;0.00;;
23262;SDS011;11800;49.830;9.922;2022-07-03T09:15:02;0.10;;;0.10;;
23262;SDS011;11800;49.830;9.922;2022-07-03T09:17:28;0.10;;;0.10;;
23262;SDS011;11800;49.830;9.922;2022-07-03T09:19:54;0.10;;;0.10;;
23262;SDS011;11800;49.830;9.922;2022-07-03T09:22:24;0.00;;;0.00;;
23262;SDS011;11800;49.830;9.922;2022-07-03T09:24:52;0.10;;;0.10;;
23262;SDS011;11800;49.830;9.922;2022-07-03T09:27:22;0.10;;;0.10;;
23262;SDS011;11800;49.830;9.922;2022-07-03T09:30:07;0.10;;;0.10;;
23262;SDS011;11800;49.830;9.922;2022-07-03T09:35:16;0.10;;;0.10;;
23262;SDS011;11800;49.830;9.922;2022-07-03T09:37:50;0.10;;;0.10;;
23262;SDS011;11800;49.830;9.922;2022-07-03T09:40:17;0.10;;;0.10;;
23262;SDS011;11800;49.830;9.922;2022-07-03T09:43:28;0.10;;;0.10;;
23262;SDS011;11800;49.830;9.922;2022-07-03T09:46:06;0.05;;;0.05;;
23262;SDS011;11800;49.830;9.922;2022-07-03T09:48:29;0.10;;;0.10;;
23262;SDS011;11800;49.830;9.922;2022-07-03T09:56:16;0.10;;;0.10;;
23262;SDS011;11800;49.830;9.922;2022-07-03T10:01:27;0.10;;;0.10;;
23262;SDS011;11800;49.830;9.922;2022-07-03T10:03:53;0.10;;;0.10;;
23262;SDS011;11800;49.830;9.922;2022-07-03T10:06:20;0.10;;;0.10;;
23262;SDS011;11800;49.830;9.922;2022-07-03T10:08:46;0.10;;;0.10;;
23262;SDS011;11800;49.830;9.922;2022-07-03T10:11:15;0.10;;;0.10;;
23262;SDS011;11800;49.830;9.922;2022-07-03T10:13:41;0.10;;;0.10;;
23262;SDS011;11800;49.830;9.922;2022-07-03T10:16:07;0.10;;;0.10;;
23262;SDS011;11800;49.830;9.922;2022-07-03T10:18:37;0.10;;;0.10;;
23262;SDS011;11800;49.830;9.922;2022-07-03T10:21:05;0.10;;;0.10;;
23262;SDS011;11800;49.830;9.922;2022-07-03T10:23:31;0.10;;;0.10;;
23262;SDS011;11800;49.830;9.922;2022-07-03T10:25:57;0.10;;;0.10;;
23262;SDS011;11800;49.830;9.922;2022-07-03T10:28:23;0.00;;;0.00;;
23262;SDS011;11800;49.830;9.922;2022-07-03T10:30:50;0.10;;;0.10;;
23262;SDS011;11800;49.830;9.922;2022-07-03T10:33:16;0.00;;;0.00;;
23262;SDS011;11800;49.830;9.922;2022-07-03T10:35:44;0.10;;;0.10;;
23262;SDS011;11800;49.830;9.922;2022-07-03T10:43:24;0.10;;;0.10;;
23262;SDS011;11800;49.830;9.922;2022-07-03T10:46:13;0.10;;;0.10;;
23262;SDS011;11800;49.830;9.922;2022-07-03T10:51:25;0.10;;;0.10;;
23262;SDS011;11800;49.830;9.922;2022-07-03T10:54:11;0.10;;;0.10;;
23262;SDS011;11800;49.830;9.922;2022-07-03T10:59:22;0.10;;;0.10;;
23262;SDS011;11800;49.830;9.922;2022-07-03T11:01:48;0.10;;;0.10;;
23262;SDS011;11800;49.830;9.922;2022-07-03T11:04:14;0.10;;;0.10;;
23262;SDS011;11800;49.830;9.922;2022-07-03T11:09:06;0.10;;;0.10;;
23262;SDS011;11800;49.830;9.922;2022-07-03T11:11:44;0.10;;;0.10;;
23262;SDS011;11800;49.830;9.922;2022-07-03T11:14:20;0.10;;;0.10;;
23262;SDS011;11800;49.830;9.922;2022-07-03T11:16:46;0.10;;;0.10;;
23262;SDS011;11800;49.830;9.922;2022-07-03T11:19:12;0.10;;;0.10;;
23262;SDS011;11800;49.830;9.922;2022-07-03T11:21:40;0.10;;;0.10;;
23262;SDS011;11800;49.830;9.922;2022-07-03T11:24:17;0.10;;;0.10;;
23262;SDS011;11800;49.830;9.922;2022-07-03T11:26:45;0.10;;;0.10;;
23262;SDS011;11800;49.830;9.922;2022-07-03T11:34:54;0.10;;;0.10;;
23262;SDS011;11800;49.830;9.922;2022-07-03T11:37:20;0.10;;;0.10;;
23262;SDS011;11800;49.830;9.922;2022-07-03T11:39:46;0.10;;;0.10;;
23262;SDS011;11800;49.830;9.922;2022-07-03T11:42:14;0.10;;;0.10;;
23262;SDS011;11800;49.830;9.922;2022-07-03T11:44:40;0.10;;;0.10;;
23262;SDS011;11800;49.830;9.922;2022-07-03T11:47:06;0.10;;;0.10;;
23262;SDS011;11800;49.830;9.922;2022-07-03T11:49:32;0.10;;;0.10;;
23262;SDS011;11800;49.830;9.922;2022-07-03T11:52:03;0.10;;;0.10;;
23262;SDS011;11800;49.830;9.922;2022-07-03T11:57:14;0.20;;;0.20;;
23262;SDS011;11800;49.830;9.922;2022-07-03T11:59:40;0.10;;;0.10;;
23262;SDS011;11800;49.830;9.922;2022-07-03T12:02:07;0.10;;;0.10;;
23262;SDS011;11800;49.830;9.922;2022-07-03T12:04:33;0.10;;;0.10;;
23262;SDS011;11800;49.830;9.922;2022-07-03T12:06:59;0.10;;;0.10;;
23262;SDS011;11800;49.830;9.922;2022-07-03T12:11:59;0.10;;;0.10;;
23262;SDS011;11800;49.830;9.922;2022-07-03T12:14:41;0.10;;;0.10;;
23262;SDS011;11800;49.830;9.922;2022-07-03T12:17:08;0.10;;;0.10;;
23262;SDS011;11800;49.830;9.922;2022-07-03T12:19:35;0.10;;;0.10;;
23262;SDS011;11800;49.830;9.922;2022-07-03T12:22:02;0.10;;;0.10;;
23262;SDS011;11800;49.830;9.922;2022-07-03T12:24:28;0.10;;;0.10;;
23262;SDS011;11800;49.830;9.922;2022-07-03T12:26:54;0.10;;;0.10;;
23262;SDS011;11800;49.830;9.922;2022-07-03T12:29:20;0.10;;;0.10;;
23262;SDS011;11800;49.830;9.922;2022-07-03T12:31:47;0.10;;;0.10;;
23262;SDS011;11800;49.830;9.922;2022-07-03T12:34:14;0.10;;;0.10;;
23262;SDS011;11800;49.830;9.922;2022-07-03T12:36:41;0.10;;;0.10;;
23262;SDS011;11800;49.830;9.922;2022-07-03T12:39:19;0.10;;;0.10;;
23262;SDS011;11800;49.830;9.922;2022-07-03T12:41:45;0.10;;;0.10;;
23262;SDS011;11800;49.830;9.922;2022-07-03T12:44:11;0.10;;;0.10;;
23262;SDS011;11800;49.830;9.922;2022-07-03T12:46:42;0.13;;;0.13;;
23262;SDS011;11800;49.830;9.922;2022-07-03T12:49:12;0.10;;;0.10;;
23262;SDS011;11800;49.830;9.922;2022-07-03T12:51:45;0.10;;;0.10;;
23262;SDS011;11800;49.830;9.922;2022-07-03T12:54:12;0.10;;;0.10;;
23262;SDS011;11800;49.830;9.922;2022-07-03T12:56:39;0.10;;;0.10;;
23262;SDS011;11800;49.830;9.922;2022-07-03T12:59:05;0.10;;;0.10;;
23262;SDS011;11800;49.830;9.922;2022-07-03T13:01:59;0.10;;;0.10;;
23262;SDS011;11800;49.830;9.922;2022-07-03T13:04:33;0.10;;;0.10;;
23262;SDS011;11800;49.830;9.922;2022-07-03T13:07:02;0.10;;;0.10;;
23262;SDS011;11800;49.830;9.922;2022-07-03T13:09:29;0.10;;;0.10;;
23262;SDS011;11800;49.830;9.922;2022-07-03T13:11:55;0.10;;;0.10;;
23262;SDS011;11800;49.830;9.922;2022-07-03T13:14:21;0.10;;;0.10;;
23262;SDS011;11800;49.830;9.922;2022-07-03T13:16:50;0.10;;;0.10;;
23262;SDS011;11800;49.830;9.922;2022-07-03T13:19:17;0.10;;;0.10;;
23262;SDS011;11800;49.830;9.922;2022-07-03T13:21:43;0.10;;;0.10;;
23262;SDS011;11800;49.830;9.922;2022-07-03T13:24:10;0.10;;;0.10;;
23262;SDS011;11800;49.830;9.922;2022-07-03T13:26:37;0.10;;;0.10;;
23262;SDS011;11800;49.830;9.922;2022-07-03T13:29:03;0.10;;;0.10;;
23262;SDS011;11800;49.830;9.922;2022-07-03T13:31:29;0.10;;;0.10;;
23262;SDS011;11800;49.830;9.922;2022-07-03T13:33:56;0.10;;;0.10;;
23262;SDS011;11800;49.830;9.922;2022-07-03T13:36:22;0.10;;;0.10;;
23262;SDS011;11800;49.830;9.922;2022-07-03T13:38:48;0.17;;;0.17;;
23262;SDS011;11800;49.830;9.922;2022-07-03T13:41:14;0.10;;;0.10;;
23262;SDS011;11800;49.830;9.922;2022-07-03T13:43:41;0.10;;;0.10;;
23262;SDS011;11800;49.830;9.922;2022-07-03T13:46:07;0.10;;;0.10;;
23262;SDS011;11800;49.830;9.922;2022-07-03T13:48:33;0.10;;;0.10;;
23262;SDS011;11800;49.830;9.922;2022-07-03T13:51:00;0.10;;;0.10;;
23262;SDS011;11800;49.830;9.922;2022-07-03T13:53:26;0.10;;;0.10;;
23262;SDS011;11800;49.830;9.922;2022-07-03T13:55:53;0.10;;;0.10;;
23262;SDS011;11800;49.830;9.922;2022-07-03T13:58:19;0.20;;;0.20;;
23262;SDS011;11800;49.830;9.922;2022-07-03T14:00:45;0.17;;;0.17;;
23262;SDS011;11800;49.830;9.922;2022-07-03T14:03:12;0.20;;;0.20;;
23262;SDS011;11800;49.830;9.922;2022-07-03T14:05:38;0.20;;;0.20;;
23262;SDS011;11800;49.830;9.922;2022-07-03T14:08:04;0.10;;;0.10;;
23262;SDS011;11800;49.830;9.922;2022-07-03T14:10:30;0.20;;;0.20;;
23262;SDS011;11800;49.830;9.922;2022-07-03T14:12:56;0.10;;;0.10;;
23262;SDS011;11800;49.830;9.922;2022-07-03T14:15:22;0.20;;;0.20;;
23262;SDS011;11800;49.830;9.922;2022-07-03T14:17:48;0.10;;;0.10;;
23262;SDS011;11800;49.830;9.922;2022-07-03T14:20:14;0.20;;;0.20;;
23262;SDS011;11800;49.830;9.922;2022-07-03T14:22:41;0.20;;;0.20;;
23262;SDS011;11800;49.830;9.922;2022-07-03T14:25:07;0.20;;;0.20;;
23262;SDS011;11800;49.830;9.922;2022-07-03T14:27:35;0.50;;;0.50;;
23262;SDS011;11800;49.830;9.922;2022-07-03T14:30:36;0.30;;;0.30;;
23262;SDS011;11800;49.830;9.922;2022-07-03T14:35:47;0.30;;;0.30;;
23262;SDS011;11800;49.830;9.922;2022-07-03T14:38:13;0.60;;;0.60;;
23262;SDS011;11800;49.830;9.922;2022-07-03T14:40:39;0.50;;;0.50;;
23262;SDS011;11800;49.830;9.922;2022-07-03T14:43:05;0.40;;;0.40;;
23262;SDS011;11800;49.830;9.922;2022-07-03T14:45:31;0.50;;;0.50;;
23262;SDS011;11800;49.830;9.922;2022-07-03T14:47:57;0.50;;;0.50;;
23262;SDS011;11800;49.830;9.922;2022-07-03T14:50:23;0.60;;;0.60;;
23262;SDS011;11800;49.830;9.922;2022-07-03T14:52:49;0.40;;;0.40;;
23262;SDS011;11800;49.830;9.922;2022-07-03T14:55:15;0.22;;;0.22;;
23262;SDS011;11800;49.830;9.922;2022-07-03T14:57:42;0.40;;;0.40;;
23262;SDS011;11800;49.830;9.922;2022-07-03T15:00:14;0.43;;;0.43;;
23262;SDS011;11800;49.830;9.922;2022-07-03T15:02:55;0.20;;;0.20;;
23262;SDS011;11800;49.830;9.922;2022-07-03T15:05:24;0.20;;;0.20;;
23262;SDS011;11800;49.830;9.922;2022-07-03T15:10:38;0.20;;;0.20;;
23262;SDS011;11800;49.830;9.922;2022-07-03T15:13:04;0.20;;;0.20;;
23262;SDS011;11800;49.830;9.922;2022-07-03T15:15:31;0.13;;;0.13;;
23262;SDS011;11800;49.830;9.922;2022-07-03T15:18:01;0.10;;;0.10;;
23262;SDS011;11800;49.830;9.922;2022-07-03T15:20:32;0.17;;;0.17;;
23262;SDS011;11800;49.830;9.922;2022-07-03T15:23:01;0.10;;;0.10;;
23262;SDS011;11800;49.830;9.922;2022-07-03T15:25:29;0.10;;;0.10;;
23262;SDS011;11800;49.830;9.922;2022-07-03T15:27:55;0.10;;;0.10;;
23262;SDS011;11800;49.830;9.922;2022-07-03T15:30:21;0.10;;;0.10;;
23262;SDS011;11800;49.830;9.922;2022-07-03T15:32:48;0.10;;;0.10;;
23262;SDS011;11800;49.830;9.922;2022-07-03T15:35:15;0.10;;;0.10;;
23262;SDS011;11800;49.830;9.922;2022-07-03T15:37:56;0.10;;;0.10;;
23262;SDS011;11800;49.830;9.922;2022-07-03T15:45:50;0.10;;;0.10;;
23262;SDS011;11800;49.830;9.922;2022-07-03T15:48:27;0.10;;;0.10;;
23262;SDS011;11800;49.830;9.922;2022-07-03T15:50:59;0.10;;;0.10;;
23262;SDS011;11800;49.830;9.922;2022-07-03T15:53:29;0.10;;;0.10;;
23262;SDS011;11800;49.830;9.922;2022-07-03T15:55:56;0.10;;;0.10;;
23262;SDS011;11800;49.830;9.922;2022-07-03T15:58:30;0.10;;;0.10;;
23262;SDS011;11800;49.830;9.922;2022-07-03T16:00:57;0.10;;;0.10;;